Time;durP1;ratioP1;P1;durP2;ratioP2;P2;SDS_P1;SDS_P2;PMS_P1;PMS_P2;Temp;Humidity;BMP_temperature;BMP_pressure;BME280_temperature;BME280_humidity;BME280_pressure;Samples;Min_cycle;Max_cycle;Signal;HPM_P1;HPM_P2
2023/08/12 00:00:42;;;;;;;30.98;26.98;;;20.80;99.90;;;;;;5041698;28;20436;-71
2023/08/12 00:03:09;;;;;;;30.85;27.55;;;20.80;99.90;;;;;;5044904;28;20414;-73
2023/08/12 00:05:36;;;;;;;26.95;24.17;;;20.90;99.90;;;;;;5051156;28;20425;-72
2023/08/12 00:08:03;;;;;;;27.80;24.98;;;20.80;99.90;;;;;;5046275;28;20487;-72
2023/08/12 00:10:30;;;;;;;26.73;24.10;;;20.80;99.90;;;;;;5043188;28;20432;-71
2023/08/12 00:12:57;;;;;;;30.50;27.40;;;20.70;99.90;;;;;;5045931;28;20488;-71
2023/08/12 00:15:25;;;;;;;26.90;24.00;;;20.80;99.90;;;;;;5043925;28;20432;-72
2023/08/12 00:17:53;;;;;;;28.80;25.70;;;20.70;99.90;;;;;;5049235;28;20427;-71
2023/08/12 00:20:20;;;;;;;28.67;25.60;;;20.70;99.90;;;;;;5047573;28;20414;-71
2023/08/12 00:22:47;;;;;;;29.73;26.73;;;20.70;99.90;;;;;;5046373;28;20416;-71
2023/08/12 00:25:13;;;;;;;28.03;24.57;;;20.70;99.90;;;;;;5046856;28;20780;-71
2023/08/12 00:27:40;;;;;;;28.67;25.27;;;20.70;99.90;;;;;;5050720;28;20448;-72
2023/08/12 00:30:08;;;;;;;33.03;28.27;;;20.70;99.90;;;;;;5047141;28;20871;-71
2023/08/12 00:32:36;;;;;;;40.13;29.90;;;20.70;99.90;;;;;;5047954;28;20432;-72
2023/08/12 00:35:03;;;;;;;31.42;28.13;;;20.70;99.90;;;;;;5049200;28;20529;-72
2023/08/12 00:37:30;;;;;;;32.72;27.15;;;20.80;99.90;;;;;;5042627;28;20432;-72
2023/08/12 00:39:57;;;;;;;32.90;27.77;;;20.70;99.90;;;;;;5041133;28;20433;-71
2023/08/12 00:42:24;;;;;;;37.30;29.33;;;20.70;99.90;;;;;;5041763;28;20439;-73
2023/08/12 00:44:50;;;;;;;37.13;29.50;;;20.70;99.90;;;;;;5044740;28;20417;-73
2023/08/12 00:47:18;;;;;;;33.85;29.30;;;20.70;99.90;;;;;;5042349;28;20437;-71
2023/08/12 00:49:46;;;;;;;37.73;29.70;;;20.70;99.90;;;;;;5043274;28;20492;-71
2023/08/12 00:52:13;;;;;;;39.13;30.40;;;20.70;99.90;;;;;;5045335;28;20500;-71
2023/08/12 00:54:40;;;;;;;36.63;29.55;;;20.70;99.90;;;;;;5041534;28;20444;-72
2023/08/12 00:57:07;;;;;;;39.90;33.72;;;20.70;99.90;;;;;;5046553;28;20447;-71
2023/08/12 00:59:36;;;;;;;42.20;34.60;;;20.70;99.90;;;;;;5042661;28;20415;-71
2023/08/12 01:02:04;;;;;;;34.83;31.10;;;20.70;99.90;;;;;;5042472;28;20498;-71
2023/08/12 01:04:31;;;;;;;37.72;33.17;;;20.50;99.90;;;;;;5044788;28;20432;-71
2023/08/12 01:06:59;;;;;;;45.42;34.72;;;20.50;99.90;;;;;;5048627;28;20537;-73
2023/08/12 01:09:26;;;;;;;43.92;36.85;;;20.50;99.90;;;;;;5046583;28;20527;-72
2023/08/12 01:11:58;;;;;;;51.60;37.93;;;20.50;99.90;;;;;;5040575;28;20437;-72
2023/08/12 01:14:31;;;;;;;53.75;38.90;;;20.50;99.90;;;;;;5040116;28;20444;-72
2023/08/12 01:17:03;;;;;;;51.42;37.22;;;20.50;99.90;;;;;;5045876;28;20444;-72
2023/08/12 01:19:37;;;;;;;43.50;34.70;;;20.50;99.90;;;;;;5048171;28;20441;-72
2023/08/12 01:22:08;;;;;;;54.80;38.13;;;20.50;99.90;;;;;;5042480;28;20487;-72
2023/08/12 01:24:37;;;;;;;42.42;36.30;;;20.50;99.90;;;;;;5049225;28;20729;-73
2023/08/12 01:27:05;;;;;;;49.30;37.85;;;20.50;99.90;;;;;;5087745;22;20443;-70
2023/08/12 01:29:32;;;;;;;48.63;38.50;;;20.50;99.90;;;;;;5100721;28;20451;-70
2023/08/12 01:32:08;;;;;;;53.67;39.42;;;20.50;99.90;;;;;;5107720;28;20431;-70
2023/08/12 01:34:43;;;;;;;54.67;41.70;;;20.40;99.90;;;;;;5106359;27;20451;-70
2023/08/12 01:37:15;;;;;;;55.08;41.53;;;20.40;99.90;;;;;;5114596;27;20481;-70
2023/08/12 01:39:46;;;;;;;68.85;45.50;;;20.40;99.90;;;;;;5130597;27;20418;-71
2023/08/12 01:42:13;;;;;;;68.80;47.70;;;20.30;99.90;;;;;;5131442;27;20412;-70
2023/08/12 01:44:40;;;;;;;65.28;47.70;;;20.40;99.90;;;;;;5128845;27;20429;-70
2023/08/12 01:47:08;;;;;;;62.83;47.30;;;20.30;99.90;;;;;;5126304;27;20426;-70
2023/08/12 01:49:36;;;;;;;62.50;45.17;;;20.30;99.90;;;;;;5126696;27;20450;-70
2023/08/12 01:52:02;;;;;;;60.00;45.15;;;20.30;99.90;;;;;;5125395;27;20885;-70
2023/08/12 01:54:33;;;;;;;64.85;46.50;;;20.20;99.90;;;;;;5127334;27;20432;-70
2023/08/12 01:57:01;;;;;;;65.35;47.65;;;20.20;99.90;;;;;;5124190;27;20460;-70
2023/08/12 01:59:28;;;;;;;68.03;47.33;;;20.20;99.90;;;;;;5126524;27;21098;-70
2023/08/12 02:01:55;;;;;;;60.43;44.80;;;20.20;99.90;;;;;;5126222;27;20912;-70
2023/08/12 02:04:21;;;;;;;58.80;43.20;;;20.20;99.90;;;;;;5124845;27;20450;-69
2023/08/12 02:06:49;;;;;;;64.72;44.45;;;20.20;99.90;;;;;;5125681;27;20920;-69
2023/08/12 02:09:16;;;;;;;63.38;45.63;;;20.20;99.90;;;;;;5128624;27;20433;-69
2023/08/12 02:11:42;;;;;;;58.15;43.20;;;20.20;99.90;;;;;;5131239;27;20411;-69
2023/08/12 02:14:11;;;;;;;56.75;42.60;;;20.20;99.90;;;;;;5130330;27;20422;-69
2023/08/12 02:16:37;;;;;;;57.55;43.50;;;20.20;99.90;;;;;;5123788;27;20406;-69
2023/08/12 02:19:04;;;;;;;57.70;42.08;;;20.10;99.90;;;;;;5131681;27;20888;-68
2023/08/12 02:21:31;;;;;;;67.95;44.42;;;20.10;99.90;;;;;;5129539;27;20774;-68
2023/08/12 02:23:58;;;;;;;66.30;45.15;;;20.10;99.90;;;;;;5129486;27;20926;-69
2023/08/12 02:26:25;;;;;;;53.35;42.38;;;20.10;99.90;;;;;;5129985;27;20414;-68
2023/08/12 02:28:51;;;;;;;49.07;41.00;;;20.10;99.90;;;;;;5126617;27;20418;-68
2023/08/12 02:31:19;;;;;;;50.22;40.72;;;20.00;99.90;;;;;;5128850;27;20406;-68
2023/08/12 02:33:46;;;;;;;46.73;38.73;;;20.00;99.90;;;;;;5131112;27;20454;-68
2023/08/12 02:36:13;;;;;;;43.30;36.25;;;20.00;99.90;;;;;;5130439;27;20426;-68
2023/08/12 02:38:40;;;;;;;44.65;38.75;;;20.00;99.90;;;;;;5128759;27;20430;-68
2023/08/12 02:41:06;;;;;;;43.22;37.47;;;19.90;99.90;;;;;;5130765;27;20402;-68
2023/08/12 02:43:33;;;;;;;44.75;37.13;;;20.00;99.90;;;;;;5127175;27;20403;-68
2023/08/12 02:46:00;;;;;;;41.77;36.40;;;20.00;99.90;;;;;;5131749;27;20406;-68
2023/08/12 02:48:28;;;;;;;44.47;36.75;;;19.90;99.90;;;;;;5131508;27;20943;-68
2023/08/12 02:50:54;;;;;;;35.88;30.65;;;19.90;99.90;;;;;;5129999;27;20430;-69
2023/08/12 02:53:21;;;;;;;35.30;30.95;;;19.90;99.90;;;;;;5129802;27;20449;-67
2023/08/12 02:55:48;;;;;;;30.00;26.90;;;19.90;99.90;;;;;;5130530;27;20407;-68
2023/08/12 02:58:15;;;;;;;31.08;27.80;;;19.80;99.90;;;;;;5130082;27;20410;-69
2023/08/12 03:00:43;;;;;;;33.53;28.93;;;19.90;99.90;;;;;;5129044;27;20434;-67
2023/08/12 03:03:10;;;;;;;29.98;26.88;;;19.90;99.90;;;;;;5130374;27;20418;-68
2023/08/12 03:05:38;;;;;;;26.55;23.85;;;19.90;99.90;;;;;;5122461;27;20409;-68
2023/08/12 03:08:05;;;;;;;27.63;25.08;;;19.90;99.90;;;;;;5130604;27;20403;-69
2023/08/12 03:10:34;;;;;;;28.10;25.40;;;19.80;99.90;;;;;;5126514;27;20742;-68
2023/08/12 03:13:01;;;;;;;28.98;25.98;;;19.80;99.90;;;;;;5124556;27;20430;-69
2023/08/12 03:15:27;;;;;;;29.80;26.90;;;19.90;99.90;;;;;;5125370;27;20810;-68
2023/08/12 03:17:54;;;;;;;33.75;30.52;;;19.90;99.90;;;;;;5122184;27;20443;-68
2023/08/12 03:20:21;;;;;;;31.75;28.60;;;19.90;99.90;;;;;;5127928;27;20407;-68
2023/08/12 03:22:49;;;;;;;33.05;29.52;;;19.90;99.90;;;;;;5129423;27;20418;-68
2023/08/12 03:25:16;;;;;;;30.23;27.10;;;19.90;99.90;;;;;;5130289;27;20406;-71
2023/08/12 03:27:43;;;;;;;26.27;23.67;;;19.90;99.90;;;;;;5130987;27;20632;-68
2023/08/12 03:30:12;;;;;;;25.30;22.90;;;19.80;99.90;;;;;;5129987;27;20423;-68
2023/08/12 03:32:38;;;;;;;25.13;22.77;;;19.80;99.90;;;;;;5129924;27;20399;-68
2023/08/12 03:35:06;;;;;;;26.20;23.40;;;19.80;99.90;;;;;;5131120;27;20422;-68
2023/08/12 03:37:32;;;;;;;24.50;22.30;;;19.80;99.90;;;;;;5123022;27;20422;-68
2023/08/12 03:40:01;;;;;;;25.38;23.17;;;19.70;99.90;;;;;;5128777;27;20919;-68
2023/08/12 03:42:27;;;;;;;24.73;22.30;;;19.80;99.90;;;;;;5127354;27;20455;-67
2023/08/12 03:44:54;;;;;;;25.33;23.02;;;19.80;99.90;;;;;;5129455;27;20857;-68
2023/08/12 03:47:23;;;;;;;25.92;23.23;;;19.80;99.90;;;;;;5129644;27;20422;-68
2023/08/12 03:49:50;;;;;;;23.77;21.58;;;19.80;99.90;;;;;;5121361;27;20427;-68
2023/08/12 03:52:17;;;;;;;20.13;18.02;;;19.80;99.90;;;;;;5124812;27;20744;-68
2023/08/12 03:54:44;;;;;;;18.55;16.80;;;19.70;99.90;;;;;;5120914;27;20454;-68
2023/08/12 03:57:12;;;;;;;18.05;16.35;;;19.70;99.90;;;;;;5126305;27;20413;-68
2023/08/12 03:59:39;;;;;;;18.08;16.38;;;19.60;99.90;;;;;;5122125;27;20410;-68
2023/08/12 04:02:06;;;;;;;18.35;16.50;;;19.60;99.90;;;;;;5128651;27;20425;-68
2023/08/12 04:04:33;;;;;;;18.33;16.63;;;19.60;99.90;;;;;;5129046;27;20769;-68
2023/08/12 04:07:00;;;;;;;18.02;16.42;;;19.50;99.90;;;;;;5124653;27;20943;-67
2023/08/12 04:09:27;;;;;;;17.10;15.40;;;19.50;99.90;;;;;;5123271;27;20432;-67
2023/08/12 04:11:54;;;;;;;16.73;15.15;;;19.50;99.90;;;;;;5124603;27;20410;-67
2023/08/12 04:14:22;;;;;;;18.50;16.80;;;19.50;99.90;;;;;;5129287;27;20419;-67
2023/08/12 04:16:48;;;;;;;17.30;15.80;;;19.50;99.90;;;;;;5128007;27;20426;-67
2023/08/12 04:19:15;;;;;;;18.15;16.55;;;19.40;99.90;;;;;;5125757;27;20920;-67
2023/08/12 04:21:45;;;;;;;19.65;17.85;;;19.40;99.90;;;;;;5128862;27;20429;-66
2023/08/12 04:24:12;;;;;;;19.60;17.90;;;19.40;99.90;;;;;;5125536;27;20431;-67
2023/08/12 04:26:39;;;;;;;19.88;18.08;;;19.40;99.90;;;;;;5128778;27;20426;-66
2023/08/12 04:29:06;;;;;;;19.02;17.23;;;19.40;99.90;;;;;;5120383;27;20514;-67
2023/08/12 04:31:34;;;;;;;20.77;18.77;;;19.40;99.90;;;;;;5121340;27;20422;-67
2023/08/12 04:34:01;;;;;;;21.02;19.02;;;19.40;99.90;;;;;;5125689;27;20781;-67
2023/08/12 04:36:28;;;;;;;20.90;19.00;;;19.40;99.90;;;;;;5120573;27;20454;-68
2023/08/12 04:38:54;;;;;;;21.50;19.50;;;19.40;99.90;;;;;;5123702;27;20960;-67
2023/08/12 04:41:23;;;;;;;21.15;19.23;;;19.40;99.90;;;;;;5124634;27;20547;-67
2023/08/12 04:43:50;;;;;;;20.30;18.50;;;19.40;99.90;;;;;;5127035;27;20965;-67
2023/08/12 04:46:17;;;;;;;20.05;18.08;;;19.40;99.90;;;;;;5126069;28;20800;-67
2023/08/12 04:48:46;;;;;;;18.17;16.58;;;19.40;99.90;;;;;;5124409;28;20939;-67
2023/08/12 04:51:14;;;;;;;18.05;16.55;;;19.40;99.90;;;;;;5130706;27;20406;-68
2023/08/12 04:53:41;;;;;;;17.33;15.82;;;19.40;99.90;;;;;;5131432;27;20428;-68
2023/08/12 04:56:08;;;;;;;17.98;16.27;;;19.50;99.90;;;;;;5132718;27;20410;-66
2023/08/12 04:58:34;;;;;;;17.80;16.10;;;19.40;99.90;;;;;;5131210;27;20414;-67
2023/08/12 05:01:02;;;;;;;18.42;16.73;;;19.50;99.90;;;;;;5129168;27;20402;-67
2023/08/12 05:03:29;;;;;;;16.25;14.82;;;19.60;99.90;;;;;;5132695;27;20406;-67
2023/08/12 05:05:57;;;;;;;17.05;15.48;;;19.60;99.90;;;;;;5132777;27;20433;-67
2023/08/12 05:08:24;;;;;;;17.40;15.80;;;19.60;99.90;;;;;;5130580;27;20422;-67
2023/08/12 05:10:51;;;;;;;15.52;14.13;;;19.60;99.90;;;;;;5128340;27;20430;-67
2023/08/12 05:13:18;;;;;;;16.35;14.85;;;19.60;99.90;;;;;;5128789;27;20418;-67
2023/08/12 05:15:47;;;;;;;15.37;13.97;;;19.70;99.90;;;;;;5132659;27;20433;-67
2023/08/12 05:18:13;;;;;;;13.05;11.85;;;19.70;99.90;;;;;;5132777;27;20418;-67
2023/08/12 05:20:41;;;;;;;12.95;11.85;;;19.70;99.90;;;;;;5130780;27;20403;-67
2023/08/12 05:23:09;;;;;;;13.20;12.00;;;19.70;99.90;;;;;;5129944;27;20422;-66
2023/08/12 05:25:36;;;;;;;12.57;11.38;;;19.70;99.90;;;;;;5132481;27;20637;-66
2023/08/12 05:28:03;;;;;;;10.90;10.00;;;19.70;99.90;;;;;;5129638;27;20437;-66
2023/08/12 05:30:30;;;;;;;11.25;10.15;;;19.70;99.90;;;;;;5127417;27;20441;-66
2023/08/12 05:32:57;;;;;;;10.75;9.85;;;19.70;99.90;;;;;;5132655;27;20765;-66
2023/08/12 05:35:23;;;;;;;11.02;10.10;;;19.80;99.90;;;;;;5129795;27;20426;-66
2023/08/12 05:37:50;;;;;;;10.20;9.30;;;19.80;99.90;;;;;;5129698;27;20920;-68
2023/08/12 05:40:18;;;;;;;10.80;9.80;;;19.90;99.90;;;;;;5128829;27;20414;-66
2023/08/12 05:42:45;;;;;;;10.93;9.93;;;19.80;99.90;;;;;;5131332;27;20908;-66
2023/08/12 05:45:12;;;;;;;11.43;10.43;;;19.90;99.90;;;;;;5124480;27;20771;-67
2023/08/12 05:47:39;;;;;;;11.27;10.48;;;19.90;99.90;;;;;;5132112;27;20912;-66
2023/08/12 05:50:07;;;;;;;11.50;10.60;;;19.90;99.90;;;;;;5121429;27;20423;-66
2023/08/12 05:52:33;;;;;;;12.38;11.32;;;19.80;99.90;;;;;;5130215;27;20460;-67
2023/08/12 05:55:00;;;;;;;13.75;12.55;;;19.80;99.90;;;;;;5131046;27;20422;-66
2023/08/12 05:57:29;;;;;;;13.67;12.47;;;19.80;99.90;;;;;;5131774;27;20410;-67
2023/08/12 05:59:56;;;;;;;14.75;13.45;;;19.90;99.90;;;;;;5131556;27;20414;-67
2023/08/12 06:02:23;;;;;;;15.35;13.85;;;19.90;99.90;;;;;;5131057;27;20479;-67
2023/08/12 06:04:49;;;;;;;14.90;13.70;;;19.80;99.90;;;;;;5132069;27;20916;-67
2023/08/12 06:07:16;;;;;;;16.55;15.07;;;19.90;99.90;;;;;;5130122;27;20431;-67
2023/08/12 06:09:43;;;;;;;17.08;15.68;;;19.80;99.90;;;;;;5127074;27;20460;-66
2023/08/12 06:12:09;;;;;;;17.98;16.40;;;19.80;99.90;;;;;;5128746;27;20425;-67
2023/08/12 06:14:38;;;;;;;19.85;17.77;;;19.80;99.90;;;;;;5130535;27;20430;-66
2023/08/12 06:17:05;;;;;;;18.98;17.17;;;19.70;99.90;;;;;;5131491;27;20461;-66
2023/08/12 06:19:32;;;;;;;19.40;17.60;;;19.70;99.90;;;;;;5131185;27;20769;-66
2023/08/12 06:21:59;;;;;;;19.92;18.10;;;19.60;99.90;;;;;;5124622;27;20459;-66
2023/08/12 06:24:26;;;;;;;19.27;17.55;;;19.60;99.90;;;;;;5129039;27;20407;-65
2023/08/12 06:26:53;;;;;;;18.30;16.70;;;19.50;99.90;;;;;;5131229;27;20494;-65
2023/08/12 06:29:20;;;;;;;16.70;15.10;;;19.60;99.90;;;;;;5129970;27;20490;-65
2023/08/12 06:31:48;;;;;;;16.88;15.27;;;19.50;99.90;;;;;;5129408;27;20420;-66
2023/08/12 06:34:14;;;;;;;14.60;13.20;;;19.50;99.90;;;;;;5127498;27;20426;-66
2023/08/12 06:36:41;;;;;;;14.55;13.35;;;19.40;99.90;;;;;;5128670;27;20428;-66
2023/08/12 06:39:08;;;;;;;14.80;13.50;;;19.40;99.90;;;;;;5127234;27;20427;-66
2023/08/12 06:41:34;;;;;;;12.18;10.98;;;19.30;99.90;;;;;;5129150;27;20800;-66
2023/08/12 06:44:03;;;;;;;10.77;9.73;;;19.30;99.90;;;;;;5130003;27;20433;-66
2023/08/12 06:46:30;;;;;;;10.90;10.00;;;19.20;99.90;;;;;;5125080;27;20450;-64
2023/08/12 06:48:59;;;;;;;8.48;7.78;;;19.30;99.90;;;;;;5127932;27;20422;-65
2023/08/12 06:51:26;;;;;;;8.73;7.93;;;19.30;99.90;;;;;;5123481;27;20422;-66
2023/08/12 06:53:53;;;;;;;8.60;7.70;;;19.30;99.90;;;;;;5128676;27;20445;-66
2023/08/12 06:56:20;;;;;;;8.65;7.85;;;19.30;99.90;;;;;;5128866;27;20934;-66
2023/08/12 06:58:46;;;;;;;8.40;7.60;;;19.30;99.90;;;;;;5126422;27;20587;-66
2023/08/12 07:01:13;;;;;;;8.90;8.10;;;19.30;99.90;;;;;;5125709;27;20432;-66
2023/08/12 07:03:40;;;;;;;9.60;8.70;;;19.30;99.90;;;;;;5123082;27;20471;-66
2023/08/12 07:06:08;;;;;;;9.50;8.50;;;19.40;99.90;;;;;;5123864;27;20426;-65
2023/08/12 07:08:35;;;;;;;8.50;7.80;;;19.50;99.90;;;;;;5125956;27;20586;-71
2023/08/12 07:11:01;;;;;;;9.70;8.90;;;19.50;99.90;;;;;;5123621;27;20422;-70
2023/08/12 07:13:28;;;;;;;9.30;8.60;;;19.40;99.90;;;;;;5123853;27;20437;-70
2023/08/12 07:15:55;;;;;;;7.88;7.18;;;19.40;99.90;;;;;;5121867;27;20422;-71
2023/08/12 07:18:22;;;;;;;6.65;6.15;;;19.30;99.90;;;;;;5121155;27;20442;-68
2023/08/12 07:20:49;;;;;;;8.10;7.40;;;19.30;99.90;;;;;;5120845;27;20422;-67
2023/08/12 07:23:17;;;;;;;7.80;7.10;;;19.30;99.90;;;;;;5124949;27;20836;-68
2023/08/12 07:25:46;;;;;;;7.80;7.20;;;19.40;99.90;;;;;;5114249;27;20766;-68
2023/08/12 07:28:13;;;;;;;7.72;7.03;;;19.50;99.90;;;;;;5116276;22;20841;-65
2023/08/12 07:30:39;;;;;;;7.88;7.28;;;19.60;99.90;;;;;;5100821;27;20423;-66
2023/08/12 07:33:06;;;;;;;8.30;7.60;;;19.60;99.90;;;;;;5113486;27;20538;-67
2023/08/12 07:35:33;;;;;;;7.95;7.35;;;19.70;99.90;;;;;;5103795;27;20928;-66
2023/08/12 07:38:00;;;;;;;7.10;6.50;;;19.70;99.90;;;;;;5097187;28;20438;-66
2023/08/12 07:40:28;;;;;;;6.85;6.15;;;19.60;99.90;;;;;;5096030;28;20437;-67
2023/08/12 07:42:54;;;;;;;5.70;5.20;;;19.70;99.90;;;;;;5100402;28;20436;-67
2023/08/12 07:45:22;;;;;;;5.25;4.80;;;19.60;99.90;;;;;;5099157;28;20480;-67
2023/08/12 07:47:50;;;;;;;6.25;5.68;;;19.60;99.90;;;;;;5097347;28;20424;-67
2023/08/12 07:50:17;;;;;;;5.35;4.85;;;19.70;99.90;;;;;;5088938;28;20458;-69
2023/08/12 07:52:44;;;;;;;4.20;3.80;;;19.80;99.90;;;;;;5075815;28;20502;-70
2023/08/12 07:55:12;;;;;;;5.50;4.20;;;19.90;99.90;;;;;;5080730;28;20895;-70
2023/08/12 07:57:40;;;;;;;4.40;4.00;;;20.10;99.90;;;;;;5083408;28;20446;-69
2023/08/12 08:00:09;;;;;;;4.20;3.90;;;20.40;99.90;;;;;;5093008;28;20438;-71
2023/08/12 08:02:36;;;;;;;4.47;4.07;;;20.60;99.90;;;;;;5089661;28;20432;-71
2023/08/12 08:05:03;;;;;;;3.40;2.90;;;20.90;99.90;;;;;;5088260;28;20504;-70
2023/08/12 08:07:30;;;;;;;3.50;3.20;;;21.10;99.90;;;;;;5080509;28;21238;-71
2023/08/12 08:09:56;;;;;;;5.00;3.10;;;21.20;99.90;;;;;;5082341;28;20456;-70
2023/08/12 08:12:23;;;;;;;3.50;3.20;;;21.20;99.90;;;;;;5081310;28;21201;-71
2023/08/12 08:14:51;;;;;;;2.80;2.50;;;21.20;99.90;;;;;;5083728;27;20547;-70
2023/08/12 08:17:18;;;;;;;3.20;2.90;;;21.10;99.90;;;;;;5084149;28;20426;-70
2023/08/12 08:19:45;;;;;;;3.17;2.87;;;21.10;99.90;;;;;;5083017;28;20432;-71
2023/08/12 08:22:12;;;;;;;3.80;3.10;;;21.00;99.90;;;;;;5082904;28;20434;-68
2023/08/12 08:24:38;;;;;;;3.50;3.20;;;21.00;99.90;;;;;;5084598;28;20814;-70
2023/08/12 08:27:05;;;;;;;3.58;2.90;;;21.00;99.90;;;;;;5085550;28;20804;-69
2023/08/12 08:29:32;;;;;;;3.30;3.00;;;21.00;99.90;;;;;;5081349;28;20586;-69
2023/08/12 08:32:00;;;;;;;3.45;3.15;;;21.10;99.90;;;;;;5081646;28;20432;-72
2023/08/12 08:34:27;;;;;;;3.70;2.70;;;21.20;99.90;;;;;;5081148;28;20471;-69
2023/08/12 08:36:54;;;;;;;3.10;2.80;;;21.20;99.90;;;;;;5080267;28;20425;-72
2023/08/12 08:39:21;;;;;;;4.05;3.10;;;21.30;99.90;;;;;;5079992;28;20491;-71
2023/08/12 08:41:49;;;;;;;3.50;2.90;;;21.20;99.90;;;;;;5080978;28;20425;-69
2023/08/12 08:44:16;;;;;;;3.73;3.30;;;21.20;99.90;;;;;;5096208;28;20447;-70
2023/08/12 08:46:44;;;;;;;4.70;3.47;;;21.20;99.90;;;;;;5095046;28;20747;-71
2023/08/12 08:49:15;;;;;;;4.20;3.10;;;21.20;99.90;;;;;;5103382;28;20419;-69
2023/08/12 08:51:43;;;;;;;4.25;3.28;;;21.20;99.90;;;;;;5097679;28;20437;-70
2023/08/12 08:54:12;;;;;;;3.42;3.00;;;21.20;99.90;;;;;;5110030;28;20432;-69
2023/08/12 08:56:39;;;;;;;4.03;3.30;;;21.20;99.90;;;;;;5104757;28;20451;-71
2023/08/12 08:59:06;;;;;;;3.30;3.00;;;21.30;99.90;;;;;;5105039;28;20577;-69
2023/08/12 09:01:33;;;;;;;3.00;2.67;;;21.30;99.90;;;;;;5104028;28;20423;-71
2023/08/12 09:04:00;;;;;;;4.28;3.22;;;21.30;99.90;;;;;;5100680;28;20444;-71
2023/08/12 09:06:30;;;;;;;4.40;2.70;;;21.40;99.90;;;;;;5107400;28;20428;-69
2023/08/12 09:08:57;;;;;;;4.32;2.95;;;21.40;99.90;;;;;;5108285;28;20756;-71
2023/08/12 09:11:24;;;;;;;2.80;2.50;;;21.50;99.90;;;;;;5096160;28;20437;-70
2023/08/12 09:13:51;;;;;;;3.22;2.75;;;21.70;99.90;;;;;;5096143;28;20442;-73
2023/08/12 09:16:18;;;;;;;3.88;2.60;;;21.90;99.90;;;;;;5100606;28;20467;-69
2023/08/12 09:18:45;;;;;;;3.35;2.20;;;22.10;99.90;;;;;;5087488;28;20480;-69
2023/08/12 09:21:12;;;;;;;3.28;2.50;;;22.20;99.90;;;;;;5095382;28;20412;-71
2023/08/12 09:23:41;;;;;;;2.22;2.03;;;22.30;99.90;;;;;;5100335;28;20428;-70
2023/08/12 09:26:15;;;;;;;2.78;2.22;;;22.30;99.90;;;;;;5089143;28;20425;-71
2023/08/12 09:28:43;;;;;;;2.95;2.30;;;22.30;99.90;;;;;;5084179;28;20432;-69
2023/08/12 09:31:23;;;;;;;2.63;2.20;;;22.40;99.90;;;;;;5090146;28;20428;-70
2023/08/12 09:33:50;;;;;;;4.05;2.80;;;22.40;99.90;;;;;;5093786;28;20423;-70
2023/08/12 09:36:17;;;;;;;2.70;2.10;;;22.60;99.90;;;;;;5088608;28;20448;-70
2023/08/12 09:38:45;;;;;;;3.38;3.03;;;22.60;99.90;;;;;;5100003;28;20566;-70
2023/08/12 09:41:12;;;;;;;9.83;8.90;;;22.80;99.90;;;;;;5094737;28;20424;-74
2023/08/12 09:43:42;;;;;;;6.73;6.20;;;23.10;99.90;;;;;;5097900;27;20994;-70
2023/08/12 09:46:12;;;;;;;5.83;5.23;;;23.30;99.90;;;;;;5104760;27;20432;-70
2023/08/12 09:48:39;;;;;;;2.50;2.30;;;23.40;99.90;;;;;;5098915;28;20512;-70
2023/08/12 09:51:06;;;;;;;2.55;1.80;;;23.70;99.90;;;;;;5102346;28;20440;-71
2023/08/12 09:53:33;;;;;;;2.00;1.50;;;23.80;99.90;;;;;;5102364;28;20445;-71
2023/08/12 09:56:06;;;;;;;2.83;1.70;;;23.90;99.90;;;;;;5106261;27;20929;-71
2023/08/12 09:58:35;;;;;;;2.40;1.70;;;23.90;99.90;;;;;;5099217;28;20689;-71
2023/08/12 10:01:03;;;;;;;2.35;1.90;;;23.60;99.70;;;;;;5097001;28;20437;-70
2023/08/12 10:03:30;;;;;;;2.22;2.00;;;23.40;99.90;;;;;;5098158;28;20504;-70
2023/08/12 10:05:58;;;;;;;2.13;1.92;;;23.30;99.90;;;;;;5090482;28;20957;-70
2023/08/12 10:08:25;;;;;;;2.50;1.80;;;23.10;99.90;;;;;;5095314;28;20900;-70
2023/08/12 10:10:52;;;;;;;2.97;1.92;;;22.80;99.90;;;;;;5102608;28;20900;-71
2023/08/12 10:13:21;;;;;;;2.70;1.60;;;22.70;99.90;;;;;;5095538;28;20523;-69
2023/08/12 10:15:48;;;;;;;2.83;2.30;;;22.60;99.90;;;;;;5098228;28;20435;-71
2023/08/12 10:18:16;;;;;;;3.50;2.20;;;22.60;99.90;;;;;;5095149;28;20433;-70
2023/08/12 10:20:45;;;;;;;3.00;2.30;;;22.50;99.90;;;;;;5100541;28;20420;-70
2023/08/12 10:23:18;;;;;;;2.45;2.00;;;22.40;99.90;;;;;;5099875;28;20453;-70
2023/08/12 10:25:46;;;;;;;2.80;1.70;;;22.30;99.90;;;;;;5100642;27;20408;-70
2023/08/12 10:28:13;;;;;;;2.70;1.55;;;22.30;99.90;;;;;;5098873;27;20509;-69
2023/08/12 10:30:42;;;;;;;2.45;1.85;;;22.40;99.90;;;;;;5100753;28;20503;-70
2023/08/12 10:33:09;;;;;;;2.00;1.70;;;22.50;99.90;;;;;;5098268;28;20438;-69
2023/08/12 10:35:44;;;;;;;3.20;2.20;;;22.70;99.90;;;;;;5097393;28;20427;-70
2023/08/12 10:38:12;;;;;;;2.63;1.50;;;22.90;99.90;;;;;;5088111;28;20437;-70
2023/08/12 10:40:39;;;;;;;2.20;1.70;;;23.10;99.90;;;;;;5096028;28;21030;-70
2023/08/12 10:43:06;;;;;;;1.80;1.70;;;23.20;99.90;;;;;;5105586;27;20448;-71
2023/08/12 10:45:47;;;;;;;2.03;1.70;;;23.20;99.90;;;;;;5099205;27;20441;-72
2023/08/12 10:48:20;;;;;;;2.88;1.88;;;23.30;99.90;;;;;;5088454;27;20905;-71
2023/08/12 10:50:48;;;;;;;2.47;1.70;;;23.30;99.90;;;;;;5103075;28;20428;-71
2023/08/12 10:53:24;;;;;;;2.50;1.60;;;23.30;99.90;;;;;;5099841;28;20808;-71
2023/08/12 10:55:52;;;;;;;2.00;1.50;;;23.20;99.90;;;;;;5089141;28;20443;-71
2023/08/12 10:58:27;;;;;;;1.70;1.57;;;23.20;99.90;;;;;;5089361;28;20519;-70
2023/08/12 11:00:56;;;;;;;2.05;1.42;;;23.20;99.90;;;;;;5095138;28;20433;-70
2023/08/12 11:03:23;;;;;;;1.60;1.40;;;23.10;99.90;;;;;;5094189;28;20444;-71
2023/08/12 11:05:50;;;;;;;2.13;1.45;;;23.10;99.90;;;;;;5091928;28;20439;-70
2023/08/12 11:08:17;;;;;;;2.15;1.42;;;23.10;99.90;;;;;;5095108;28;20914;-72
2023/08/12 11:10:44;;;;;;;1.70;1.30;;;23.10;99.60;;;;;;5103716;28;20771;-73
2023/08/12 11:13:11;;;;;;;1.50;1.30;;;23.10;99.90;;;;;;5094220;28;20775;-73
2023/08/12 11:15:41;;;;;;;1.80;1.30;;;23.10;99.30;;;;;;5104847;27;20447;-71
2023/08/12 11:18:11;;;;;;;2.00;1.40;;;23.10;99.70;;;;;;5093044;27;20557;-71
2023/08/12 11:20:38;;;;;;;1.80;1.30;;;23.00;99.70;;;;;;5095247;28;20433;-71
2023/08/12 11:23:07;;;;;;;1.45;1.33;;;22.90;98.50;;;;;;5110487;27;20424;-72
2023/08/12 11:25:34;;;;;;;1.63;1.20;;;23.00;97.90;;;;;;5104841;27;20902;-73
2023/08/12 11:28:02;;;;;;;1.40;1.20;;;23.00;98.00;;;;;;5108685;27;20428;-71
2023/08/12 11:30:29;;;;;;;2.25;1.20;;;23.10;97.30;;;;;;5097458;28;20588;-70
2023/08/12 11:32:56;;;;;;;1.50;1.00;;;23.30;97.80;;;;;;5098204;28;20438;-71
2023/08/12 11:35:25;;;;;;;2.42;1.30;;;23.50;97.40;;;;;;5092797;28;20933;-70
2023/08/12 11:37:55;;;;;;;1.40;1.13;;;23.60;96.70;;;;;;5092848;28;20534;-72
2023/08/12 11:40:23;;;;;;;1.90;1.20;;;23.70;96.60;;;;;;5091805;28;20433;-72
2023/08/12 11:42:51;;;;;;;2.10;1.20;;;23.80;96.20;;;;;;5088819;28;20430;-71
2023/08/12 11:45:19;;;;;;;1.80;1.10;;;23.80;96.60;;;;;;5086910;28;20436;-73
2023/08/12 11:47:52;;;;;;;1.70;1.23;;;23.70;96.10;;;;;;5096129;28;20790;-73
2023/08/12 11:50:19;;;;;;;1.70;1.25;;;23.70;96.60;;;;;;5093585;28;20437;-74
2023/08/12 11:52:47;;;;;;;1.50;1.30;;;23.60;97.30;;;;;;5094858;28;20443;-72
2023/08/12 11:55:15;;;;;;;1.40;1.23;;;23.60;97.10;;;;;;5083769;28;20434;-73
2023/08/12 11:57:42;;;;;;;2.28;1.50;;;23.60;96.90;;;;;;5093300;28;20429;-73
2023/08/12 12:00:14;;;;;;;1.40;1.20;;;23.60;97.00;;;;;;5098999;28;20443;-72
2023/08/12 12:02:42;;;;;;;1.60;1.23;;;23.60;96.70;;;;;;5092536;28;20619;-73
2023/08/12 12:05:11;;;;;;;2.00;1.10;;;23.60;96.60;;;;;;5082068;28;21114;-73
2023/08/12 12:07:38;;;;;;;1.40;1.20;;;23.70;96.70;;;;;;5086550;28;20514;-72
2023/08/12 12:10:07;;;;;;;1.35;1.20;;;23.70;96.30;;;;;;5095136;28;20426;-72
2023/08/12 12:12:35;;;;;;;1.48;1.17;;;23.70;96.10;;;;;;5095645;28;20894;-71
2023/08/12 12:15:02;;;;;;;1.88;1.30;;;23.70;96.80;;;;;;5098415;28;20414;-72
2023/08/12 12:17:29;;;;;;;1.75;1.27;;;23.70;97.40;;;;;;5092974;28;20424;-70
2023/08/12 12:19:57;;;;;;;1.77;1.33;;;23.90;96.40;;;;;;5094876;28;20430;-73
2023/08/12 12:22:28;;;;;;;1.80;1.40;;;24.00;96.00;;;;;;5091885;28;20435;-73
2023/08/12 12:24:58;;;;;;;1.35;1.10;;;24.20;95.70;;;;;;5089194;28;20909;-71
2023/08/12 12:27:26;;;;;;;1.90;1.10;;;24.40;94.40;;;;;;5097176;28;20428;-72
2023/08/12 12:29:53;;;;;;;1.70;0.80;;;24.40;94.00;;;;;;5088866;28;20879;-72
2023/08/12 12:32:20;;;;;;;1.40;1.20;;;24.40;93.40;;;;;;5087019;28;20428;-73
2023/08/12 12:34:47;;;;;;;1.40;1.08;;;24.40;94.00;;;;;;5092993;28;20443;-69
2023/08/12 12:37:14;;;;;;;2.70;1.23;;;24.30;96.20;;;;;;5087886;28;20473;-69